Time;durP1;ratioP1;P1;durP2;ratioP2;P2;SDS_P1;SDS_P2;PMS_P1;PMS_P2;Temp;Humidity;BMP_temperature;BMP_pressure;BME280_temperature;BME280_humidity;BME280_pressure;Samples;Min_cycle;Max_cycle;Signal;HPM_P1;HPM_P2
2023/04/28 00:00:30;;;;;;;7.60;6.10;;;;;;;3.67;82.27;97689.21;110221;1243;68570;-75
2023/04/28 00:03:16;;;;;;;7.80;5.30;;;;;;;3.66;81.72;97688.39;110187;1242;59670;-76
2023/04/28 00:05:46;;;;;;;5.40;4.60;;;;;;;3.63;82.10;97687.64;110239;1242;59705;-78
2023/04/28 00:08:16;;;;;;;6.30;5.30;;;;;;;3.62;82.62;97690.61;110234;1243;71408;-76
2023/04/28 00:10:46;;;;;;;10.70;6.50;;;;;;;3.60;81.62;97693.45;110176;1240;68461;-77
2023/04/28 00:13:16;;;;;;;7.20;5.50;;;;;;;3.56;84.46;97695.65;110226;1241;68559;-76
2023/04/28 00:15:48;;;;;;;7.00;5.80;;;;;;;3.53;85.16;97695.25;110205;1240;59731;-76
2023/04/28 00:18:20;;;;;;;6.60;5.20;;;;;;;3.52;85.93;97696.88;110199;1245;59820;-78
2023/04/28 00:20:51;;;;;;;6.00;4.70;;;;;;;3.49;85.98;97696.45;110251;1242;70456;-77
2023/04/28 00:23:21;;;;;;;8.80;5.30;;;;;;;3.47;86.13;97700.51;110246;1242;67424;-77
2023/04/28 00:25:53;;;;;;;7.50;5.30;;;;;;;3.47;83.19;97702.59;110198;1241;68580;-79
2023/04/28 00:28:23;;;;;;;6.20;5.00;;;;;;;3.46;84.57;97704.15;110219;1241;59680;-77
2023/04/28 00:30:57;;;;;;;9.80;5.50;;;;;;;3.44;86.31;97698.73;110234;1241;59686;-76
2023/04/28 00:33:28;;;;;;;7.20;5.70;;;;;;;3.43;83.50;97700.48;110241;1242;70685;-77
2023/04/28 00:35:59;;;;;;;8.00;6.10;;;;;;;3.43;82.83;97701.72;110102;1244;69863;-76
2023/04/28 00:38:30;;;;;;;8.30;6.00;;;;;;;3.42;87.44;97705.36;110158;1242;69201;-77
2023/04/28 00:41:00;;;;;;;7.70;5.90;;;;;;;3.42;87.56;97707.97;110234;1245;59806;-77
2023/04/28 00:43:31;;;;;;;6.80;4.70;;;;;;;3.42;88.87;97707.79;110238;1242;59754;-77
2023/04/28 00:46:05;;;;;;;7.10;6.20;;;;;;;3.42;90.19;97707.27;110253;1241;70652;-76
2023/04/28 00:48:38;;;;;;;7.50;5.20;;;;;;;3.42;90.38;97711.04;110213;1242;68487;-76
2023/04/28 00:51:10;;;;;;;9.20;6.60;;;;;;;3.42;90.03;97715.01;110247;1242;69814;-77
2023/04/28 00:53:40;;;;;;;8.10;6.50;;;;;;;3.41;89.63;97715.73;110191;1242;59737;-77
2023/04/28 00:56:11;;;;;;;8.20;6.70;;;;;;;3.42;84.49;97714.85;110090;1245;59666;-77
2023/04/28 00:58:42;;;;;;;10.10;6.80;;;;;;;3.41;87.50;97717.61;110225;1243;71396;-77
2023/04/28 01:01:12;;;;;;;7.80;5.80;;;;;;;3.40;88.71;97716.63;110085;1244;69298;-77
2023/04/28 01:03:46;;;;;;;8.00;6.30;;;;;;;3.39;83.81;97714.45;110223;1248;69100;-77
2023/04/28 01:06:19;;;;;;;8.90;6.70;;;;;;;3.37;83.08;97718.14;110222;1242;59737;-77
2023/04/28 01:08:52;;;;;;;9.50;6.70;;;;;;;3.34;89.39;97718.77;110190;1241;59686;-77
2023/04/28 01:11:23;;;;;;;8.00;6.00;;;;;;;3.32;92.50;97718.67;110141;1241;70309;-77
2023/04/28 01:14:15;;;;;;;8.50;5.70;;;;;;;3.30;92.72;97716.67;109971;1242;68473;-77
2023/04/28 01:16:48;;;;;;;6.80;5.40;;;;;;;3.29;94.01;97718.09;110092;1241;68522;-77
2023/04/28 01:19:22;;;;;;;6.90;5.80;;;;;;;3.28;93.48;97718.13;110119;1241;59665;-77
2023/04/28 01:21:53;;;;;;;7.30;6.10;;;;;;;3.28;94.91;97720.03;110286;1241;59737;-77
2023/04/28 01:24:25;;;;;;;7.30;6.00;;;;;;;3.29;93.17;97720.52;110061;1245;71357;-77
2023/04/28 01:26:57;;;;;;;9.20;6.20;;;;;;;3.29;93.16;97721.39;110186;1244;69272;-76
2023/04/28 01:29:28;;;;;;;8.50;6.30;;;;;;;3.28;93.37;97723.82;110186;1242;68571;-77
2023/04/28 01:31:58;;;;;;;8.20;5.60;;;;;;;3.29;94.80;97720.35;110201;1240;59760;-77
2023/04/28 01:34:28;;;;;;;7.40;5.70;;;;;;;3.29;94.54;97718.62;110096;1241;59729;-77
2023/04/28 01:36:57;;;;;;;8.60;5.80;;;;;;;3.29;93.41;97717.09;110279;1241;71946;-77
2023/04/28 01:39:27;;;;;;;7.10;5.60;;;;;;;3.29;93.39;97719.33;110153;1244;69162;-77
2023/04/28 01:41:57;;;;;;;;;;;;;;;3.29;93.69;97718.12;110384;1244;69150;-77
2023/04/28 01:44:27;;;;;;;9.50;6.50;;;;;;;3.29;94.93;97721.39;110270;1242;59747;-78
2023/04/28 01:46:58;;;;;;;6.90;5.40;;;;;;;3.27;95.48;97721.10;110253;1245;59630;-77
2023/04/28 01:49:30;;;;;;;7.20;6.00;;;;;;;3.25;95.41;97722.39;110190;1242;70745;-77
2023/04/28 01:52:00;;;;;;;7.20;5.40;;;;;;;3.22;94.22;97723.72;110175;1242;68585;-77
2023/04/28 01:54:31;;;;;;;8.50;6.30;;;;;;;3.20;94.65;97724.83;110182;1242;69386;-77
2023/04/28 01:57:02;;;;;;;8.50;5.80;;;;;;;3.19;93.98;97725.40;110121;1242;59730;-77
2023/04/28 01:59:33;;;;;;;8.20;6.50;;;;;;;3.16;93.92;97728.23;110127;1245;59743;-78
2023/04/28 02:02:03;;;;;;;5.70;5.10;;;;;;;3.11;95.61;97728.95;110197;1249;71619;-77
2023/04/28 02:04:34;;;;;;;7.50;5.60;;;;;;;3.07;95.03;97731.35;110103;1240;69535;-78
2023/04/28 02:07:03;;;;;;;11.00;6.60;;;;;;;3.02;94.71;97731.02;110198;1241;68497;-77
2023/04/28 02:09:33;;;;;;;9.10;6.60;;;;;;;2.95;92.58;97729.05;110237;1242;59808;-78
2023/04/28 02:12:03;;;;;;;;;;;;;;;2.89;94.01;97735.62;110152;1244;59745;-78
2023/04/28 02:14:33;;;;;;;7.70;5.40;;;;;;;2.86;96.93;97737.63;110191;1242;71987;-78
2023/04/28 02:17:04;;;;;;;9.40;6.40;;;;;;;2.85;96.28;97742.15;110275;1241;69203;-78
2023/04/28 02:19:34;;;;;;;8.40;7.10;;;;;;;2.83;97.84;97738.79;110228;1242;70229;-78
2023/04/28 02:22:04;;;;;;;7.80;6.30;;;;;;;2.80;96.19;97739.91;110238;1242;59700;-78
2023/04/28 02:24:36;;;;;;;7.60;5.90;;;;;;;2.77;95.85;97741.94;110244;1241;59743;-78
2023/04/28 02:27:07;;;;;;;7.10;5.70;;;;;;;2.73;96.62;97739.13;110263;1242;71234;-78
2023/04/28 02:29:37;;;;;;;7.40;6.00;;;;;;;2.70;96.09;97741.16;110195;1242;69427;-78
2023/04/28 02:32:07;;;;;;;;;;;;;;;2.67;96.91;97742.27;110219;1242;69257;-78
2023/04/28 02:34:37;;;;;;;;;;;;;;;2.64;97.12;97741.36;110274;1242;59677;-78
2023/04/28 02:37:09;;;;;;;8.10;5.90;;;;;;;2.59;96.07;97744.97;110246;1242;59681;-78
2023/04/28 02:39:39;;;;;;;7.70;4.80;;;;;;;2.56;94.70;97744.39;110171;1244;71356;-78
2023/04/28 02:42:10;;;;;;;6.20;4.90;;;;;;;2.53;93.32;97746.02;110127;1242;68449;-78
2023/04/28 02:44:41;;;;;;;9.70;6.40;;;;;;;2.52;92.34;97749.02;110164;1245;68835;-78
2023/04/28 02:47:11;;;;;;;8.30;6.80;;;;;;;2.50;92.28;97750.98;110239;1242;59736;-78
2023/04/28 02:49:41;;;;;;;9.10;7.40;;;;;;;2.48;96.03;97753.09;110208;1245;59704;-78
2023/04/28 02:52:12;;;;;;;12.20;7.80;;;;;;;2.47;99.48;97755.23;110155;1240;71775;-78
2023/04/28 02:54:42;;;;;;;11.10;8.30;;;;;;;2.47;97.76;97755.73;110244;1240;69074;-78
2023/04/28 02:57:12;;;;;;;10.50;7.20;;;;;;;2.47;98.05;97755.70;110128;1245;69691;-79
2023/04/28 02:59:42;;;;;;;11.30;7.80;;;;;;;2.49;96.03;97760.46;110267;1242;59808;-78
2023/04/28 03:02:11;;;;;;;13.10;8.40;;;;;;;2.51;97.23;97766.77;110163;1245;59807;-77
2023/04/28 03:04:41;;;;;;;10.10;7.70;;;;;;;2.53;99.27;97767.87;110146;1241;70690;-78
2023/04/28 03:07:11;;;;;;;11.40;7.80;;;;;;;2.55;98.70;97767.30;110148;1241;68542;-78
2023/04/28 03:09:41;;;;;;;9.40;7.50;;;;;;;2.58;99.33;97772.55;110220;1241;69165;-77
2023/04/28 03:12:11;;;;;;;12.00;7.00;;;;;;;2.59;98.25;97777.67;110185;1242;59671;-78
2023/04/28 03:14:40;;;;;;;;;;;;;;;2.60;97.49;97772.67;110234;1240;59689;-78
2023/04/28 03:17:13;;;;;;;11.50;9.00;;;;;;;2.59;95.04;97774.92;110199;1243;71826;-78
2023/04/28 03:19:43;;;;;;;13.00;9.00;;;;;;;2.59;98.49;97779.23;110143;1244;69184;-78
2023/04/28 03:22:13;;;;;;;12.60;8.50;;;;;;;2.58;100.00;97781.14;110194;1242;68354;-78
2023/04/28 03:24:44;;;;;;;14.00;10.20;;;;;;;2.57;100.00;97783.76;110073;1241;59690;-78
2023/04/28 03:27:15;;;;;;;14.20;10.80;;;;;;;2.56;99.38;97789.64;110206;1242;59643;-78
2023/04/28 03:29:45;;;;;;;;;;;;;;;2.54;99.80;97790.05;110242;1242;70659;-78
2023/04/28 03:32:16;;;;;;;12.70;9.60;;;;;;;2.51;99.51;97787.73;110135;1244;69634;-78
2023/04/28 03:34:46;;;;;;;17.90;12.30;;;;;;;2.50;100.00;97790.54;110209;1242;69248;-78
2023/04/28 03:37:16;;;;;;;11.00;8.30;;;;;;;2.50;98.89;97786.75;110191;1241;59693;-78
2023/04/28 03:39:46;;;;;;;12.10;7.50;;;;;;;2.49;96.00;97786.27;110093;1245;59715;-78
2023/04/28 03:42:17;;;;;;;11.40;8.00;;;;;;;2.47;97.10;97786.83;110094;1244;71455;-78
2023/04/28 03:45:07;;;;;;;;;;;;;;;2.46;99.54;97790.52;110238;1242;69252;-78
2023/04/28 03:47:36;;;;;;;13.90;9.50;;;;;;;2.44;100.00;97790.40;110200;1241;68532;-79
2023/04/28 03:50:08;;;;;;;14.50;11.10;;;;;;;2.41;100.00;97796.88;110148;1245;59782;-77
2023/04/28 03:52:37;;;;;;;15.90;10.70;;;;;;;2.39;100.00;97801.60;110191;1240;59688;-78
2023/04/28 03:55:08;;;;;;;16.30;11.20;;;;;;;2.37;100.00;97804.23;110301;1242;71461;-78
2023/04/28 03:57:37;;;;;;;12.70;9.10;;;;;;;2.36;100.00;97809.27;110353;1245;67744;-78
2023/04/28 04:00:07;;;;;;;11.90;8.80;;;;;;;2.35;100.00;97810.33;110205;1244;68878;-78
2023/04/28 04:02:43;;;;;;;10.50;8.70;;;;;;;2.36;100.00;97810.11;110255;1242;59744;-78
2023/04/28 04:05:14;;;;;;;11.00;7.90;;;;;;;2.37;100.00;97812.66;110288;1242;59737;-78
2023/04/28 04:07:44;;;;;;;9.90;8.30;;;;;;;2.40;100.00;97818.05;110166;1245;71984;-78
2023/04/28 04:10:13;;;;;;;10.10;7.70;;;;;;;2.43;100.00;97813.31;110240;1242;69821;-77
2023/04/28 04:12:44;;;;;;;8.60;6.70;;;;;;;2.45;100.00;97813.06;110121;1245;69339;-78
2023/04/28 04:15:14;;;;;;;11.20;8.20;;;;;;;2.49;100.00;97813.80;110095;1243;59670;-78
2023/04/28 04:17:44;;;;;;;10.50;7.20;;;;;;;2.52;100.00;97822.29;110132;1245;59676;-77
2023/04/28 04:20:15;;;;;;;11.70;7.90;;;;;;;2.57;99.48;97826.80;110084;1244;71485;-76
2023/04/28 04:22:45;;;;;;;;;;;;;;;2.61;97.48;97822.84;110239;1242;69616;-77
2023/04/28 04:25:15;;;;;;;9.10;7.70;;;;;;;2.65;98.53;97824.45;110207;1242;69683;-76
2023/04/28 04:27:44;;;;;;;10.20;7.30;;;;;;;2.68;99.20;97823.30;110072;1242;59646;-76
2023/04/28 04:30:14;;;;;;;12.00;8.50;;;;;;;2.70;98.39;97824.60;110236;1241;59625;-77
2023/04/28 04:32:43;;;;;;;10.80;8.80;;;;;;;2.71;98.31;97830.41;110137;1244;71983;-77
2023/04/28 04:35:13;;;;;;;10.20;9.20;;;;;;;2.72;98.02;97831.42;110149;1244;69856;-77
2023/04/28 04:37:43;;;;;;;13.80;10.20;;;;;;;2.71;99.69;97833.36;110184;1242;68593;-77
2023/04/28 04:40:12;;;;;;;12.70;10.20;;;;;;;2.69;98.34;97832.73;110092;1243;59730;-77
2023/04/28 04:42:45;;;;;;;16.50;12.20;;;;;;;2.68;99.95;97838.10;110145;1245;59637;-77
2023/04/28 04:45:20;;;;;;;14.40;11.70;;;;;;;2.68;100.00;97842.05;110101;1241;71948;-76
2023/04/28 04:47:49;;;;;;;14.10;12.60;;;;;;;2.68;100.00;97843.77;110130;1244;69893;-76
2023/04/28 04:50:18;;;;;;;17.60;12.90;;;;;;;2.70;100.00;97847.70;110068;1245;69711;-76
2023/04/28 04:52:48;;;;;;;;;;;;;;;2.71;100.00;97845.20;110199;1242;59763;-76
2023/04/28 04:55:18;;;;;;;16.10;12.40;;;;;;;2.74;100.00;97845.14;110148;1242;59689;-76
2023/04/28 04:57:48;;;;;;;16.40;11.20;;;;;;;2.75;100.00;97844.05;110172;1242;69650;-76
2023/04/28 05:00:36;;;;;;;15.50;9.50;;;;;;;2.80;100.00;97842.16;110107;1245;69252;-77
2023/04/28 05:03:06;;;;;;;14.10;10.40;;;;;;;2.87;100.00;97844.85;110129;1244;69775;-78
2023/04/28 05:05:36;;;;;;;14.80;10.40;;;;;;;2.93;100.00;97844.48;110177;1242;59722;-77
2023/04/28 05:08:11;;;;;;;15.00;11.90;;;;;;;2.97;100.00;97844.33;110228;1245;59674;-77
2023/04/28 05:10:41;;;;;;;10.90;8.00;;;;;;;3.05;100.00;97844.73;110117;1241;72007;-77
2023/04/28 05:13:10;;;;;;;10.90;7.80;;;;;;;3.15;100.00;97846.44;110145;1245;68618;-77
2023/04/28 05:15:39;;;;;;;10.40;7.90;;;;;;;3.24;100.00;97850.43;110255;1242;69300;-77
2023/04/28 05:18:23;;;;;;;13.10;8.00;;;;;;;3.35;99.65;97849.34;110143;1241;59660;-77
2023/04/28 05:20:52;;;;;;;9.70;7.30;;;;;;;3.41;98.96;97848.92;110252;1241;59735;-77
2023/04/28 05:23:21;;;;;;;11.00;7.20;;;;;;;3.42;99.90;97850.27;110132;1245;71387;-77
2023/04/28 05:25:50;;;;;;;13.40;9.60;;;;;;;3.50;98.70;97851.00;110230;1240;69046;-77
2023/04/28 05:28:20;;;;;;;11.50;8.10;;;;;;;3.49;98.49;97853.79;110148;1244;69097;-77
2023/04/28 05:30:51;;;;;;;10.00;7.90;;;;;;;3.58;99.01;97850.02;110133;1246;60082;-77
2023/04/28 05:33:20;;;;;;;12.60;8.60;;;;;;;3.80;99.13;97856.93;110220;1242;59674;-77
2023/04/28 05:35:49;;;;;;;12.40;7.90;;;;;;;4.04;97.45;97855.83;110234;1241;70637;-79
2023/04/28 05:38:19;;;;;;;9.50;7.70;;;;;;;4.39;95.95;97855.46;110173;1243;69228;-72
2023/04/28 05:40:51;;;;;;;12.70;9.70;;;;;;;4.86;96.83;97859.02;110143;1243;68497;-73
2023/04/28 05:43:21;;;;;;;13.30;10.10;;;;;;;5.35;96.24;97858.26;110088;1245;59665;-74
2023/04/28 05:45:50;;;;;;;20.10;13.10;;;;;;;5.91;93.00;97860.03;110163;1245;59705;-74
2023/04/28 05:48:20;;;;;;;13.00;10.90;;;;;;;6.35;88.43;97861.58;110150;1245;72112;-73
2023/04/28 05:50:49;;;;;;;14.50;10.80;;;;;;;6.89;85.36;97865.64;110165;1244;68618;-73
2023/04/28 05:53:19;;;;;;;13.40;11.70;;;;;;;7.43;80.01;97864.09;110082;1243;69869;-74
2023/04/28 05:55:48;;;;;;;13.90;10.20;;;;;;;7.97;73.95;97869.66;110132;1244;59769;-72
2023/04/28 05:58:17;;;;;;;11.60;8.70;;;;;;;8.31;67.84;97873.48;110102;1245;59730;-72
2023/04/28 06:00:46;;;;;;;9.60;7.90;;;;;;;8.45;64.32;97873.43;110156;1243;71962;-72
2023/04/28 06:03:17;;;;;;;8.90;7.50;;;;;;;9.10;65.88;97870.68;110083;1245;69550;-72
2023/04/28 06:05:47;;;;;;;7.00;6.10;;;;;;;9.59;61.54;97868.04;110133;1244;70033;-72
2023/04/28 06:08:18;;;;;;;;;;;;;;;10.02;61.78;97865.24;110154;1245;59699;-72
2023/04/28 06:10:47;;;;;;;;;;;;;;;10.45;56.30;97867.17;110210;1241;59731;-72
2023/04/28 06:13:16;;;;;;;8.50;5.10;;;;;;;10.62;53.74;97869.23;110195;1241;71383;-72
2023/04/28 06:15:45;;;;;;;6.90;4.80;;;;;;;10.80;53.55;97868.37;110286;1245;69612;-73
2023/04/28 06:18:15;;;;;;;6.30;5.10;;;;;;;11.01;53.07;97865.57;110169;1245;69301;-71
2023/04/28 06:20:44;;;;;;;5.80;4.80;;;;;;;11.41;50.98;97867.92;110123;1246;59687;-70
2023/04/28 06:23:13;;;;;;;5.50;4.70;;;;;;;11.65;49.44;97861.69;110053;1245;59751;-72
2023/04/28 06:25:47;;;;;;;7.10;5.50;;;;;;;11.65;49.55;97862.05;110092;1241;72714;-73
2023/04/28 06:28:15;;;;;;;6.70;4.80;;;;;;;11.62;48.51;97863.13;110199;1246;69790;-71
2023/04/28 06:30:48;;;;;;;8.80;6.00;;;;;;;11.84;49.51;97860.17;110184;1245;69641;-71
2023/04/28 06:33:17;;;;;;;7.70;5.90;;;;;;;11.98;49.01;97868.46;110134;1244;59749;-73
2023/04/28 06:35:46;;;;;;;7.90;6.20;;;;;;;12.07;49.63;97874.83;110162;1245;59657;-73
2023/04/28 06:38:16;;;;;;;7.10;5.90;;;;;;;12.46;48.35;97870.64;109714;1243;625243;-71
2023/04/28 06:40:46;;;;;;;9.20;5.90;;;;;;;12.50;46.73;97869.07;110081;1244;68994;-73
2023/04/28 06:43:19;;;;;;;6.50;4.90;;;;;;;12.88;46.20;97868.92;110148;1247;68855;-72
2023/04/28 06:46:01;;;;;;;7.50;5.70;;;;;;;13.14;45.46;97864.53;110198;1242;59731;-72
2023/04/28 06:48:31;;;;;;;8.50;5.70;;;;;;;13.36;44.90;97867.25;110182;1241;59673;-72
2023/04/28 06:51:00;;;;;;;7.00;6.00;;;;;;;13.23;43.56;97873.30;110171;1242;71302;-70
2023/04/28 06:53:29;;;;;;;6.80;6.00;;;;;;;13.46;43.19;97872.87;110090;1245;69082;-70
2023/04/28 06:56:01;;;;;;;7.10;5.70;;;;;;;13.63;43.68;97870.17;110107;1245;68543;-68
2023/04/28 06:58:30;;;;;;;7.40;4.90;;;;;;;13.46;42.98;97870.67;110142;1245;59756;-69
2023/04/28 07:01:00;;;;;;;7.00;5.50;;;;;;;13.52;41.82;97866.30;110191;1241;59757;-71
2023/04/28 07:03:29;;;;;;;6.80;5.10;;;;;;;13.75;43.17;97862.80;110169;1242;71854;-70
2023/04/28 07:05:58;;;;;;;6.20;4.90;;;;;;;13.87;41.25;97860.77;110217;1242;68989;-71
2023/04/28 07:08:29;;;;;;;6.70;5.10;;;;;;;14.06;41.30;97862.40;110175;1249;68884;-73
2023/04/28 07:10:58;;;;;;;8.30;5.00;;;;;;;14.13;40.64;97861.48;110289;1242;59741;-73
2023/04/28 07:13:32;;;;;;;5.60;4.30;;;;;;;13.92;40.51;97862.34;110163;1241;59744;-72
2023/04/28 07:16:01;;;;;;;5.50;3.50;;;;;;;13.82;38.22;97863.25;110226;1242;71213;-73
2023/04/28 07:18:30;;;;;;;4.60;3.30;;;;;;;13.28;36.57;97863.77;110213;1243;69218;-72
2023/04/28 07:21:00;;;;;;;4.90;3.30;;;;;;;14.22;38.11;97866.55;110188;1240;68142;-71
2023/04/28 07:23:33;;;;;;;4.30;3.10;;;;;;;15.02;37.92;97873.85;110176;1242;60172;-72
2023/04/28 07:26:02;;;;;;;4.60;3.20;;;;;;;15.50;35.94;97865.27;110242;1241;59697;-73
2023/04/28 07:28:31;;;;;;;6.00;3.60;;;;;;;15.72;34.93;97866.90;110217;1241;70931;-73
2023/04/28 07:31:00;;;;;;;5.20;3.60;;;;;;;15.52;34.41;97866.33;110208;1240;69549;-72
2023/04/28 07:33:29;;;;;;;5.90;3.70;;;;;;;15.68;35.58;97863.04;110143;1241;69136;-72
2023/04/28 07:35:58;;;;;;;4.30;3.40;;;;;;;15.38;34.53;97860.65;110127;1242;59673;-71
2023/04/28 07:38:28;;;;;;;4.30;3.40;;;;;;;15.50;34.03;97861.63;110193;1242;59672;-71
2023/04/28 07:40:57;;;;;;;4.60;3.30;;;;;;;15.59;35.05;97856.57;110090;1244;71966;-70
2023/04/28 07:43:26;;;;;;;3.20;2.70;;;;;;;16.03;32.17;97857.36;110108;1245;69228;-70
2023/04/28 07:45:57;;;;;;;3.60;2.80;;;;;;;16.23;30.11;97857.85;110199;1242;69287;-69
2023/04/28 07:48:26;;;;;;;5.40;3.40;;;;;;;16.64;32.60;97855.93;110211;1241;59753;-70
2023/04/28 07:50:57;;;;;;;5.60;3.50;;;;;;;16.76;32.88;97857.00;110194;1242;59709;-70
2023/04/28 07:53:26;;;;;;;4.10;3.40;;;;;;;16.51;32.61;97858.73;110233;1242;71985;-70
2023/04/28 07:55:55;;;;;;;4.70;2.80;;;;;;;16.45;31.61;97857.84;110191;1243;69211;-70
2023/04/28 07:58:24;;;;;;;4.90;3.40;;;;;;;15.91;31.45;97855.02;110161;1240;69272;-71
2023/04/28 08:00:53;;;;;;;4.50;2.60;;;;;;;15.55;32.21;97854.52;110191;1240;59660;-71
2023/04/28 08:03:22;;;;;;;3.40;2.10;;;;;;;15.20;30.89;97850.60;110195;1242;59665;-71
2023/04/28 08:05:52;;;;;;;4.90;2.00;;;;;;;15.14;31.16;97850.90;110193;1243;71972;-70
2023/04/28 08:08:21;;;;;;;2.50;1.60;;;;;;;15.09;30.06;97851.06;110213;1242;69832;-71
2023/04/28 08:10:51;;;;;;;3.50;2.10;;;;;;;14.93;29.67;97853.06;110185;1241;69972;-70
2023/04/28 08:13:20;;;;;;;3.40;2.80;;;;;;;14.62;29.73;97851.77;110222;1241;59807;-70
2023/04/28 08:15:49;;;;;;;3.70;2.60;;;;;;;14.20;31.81;97856.59;110208;1242;59678;-70
2023/04/28 08:18:24;;;;;;;4.50;2.90;;;;;;;13.65;32.80;97853.77;110179;1242;69817;-70
2023/04/28 08:20:54;;;;;;;3.90;2.70;;;;;;;13.47;32.49;97858.48;110257;1242;69597;-72
2023/04/28 08:23:26;;;;;;;3.90;2.20;;;;;;;13.16;33.29;97855.77;110191;1241;69291;-72
2023/04/28 08:25:55;;;;;;;3.60;2.60;;;;;;;13.41;33.73;97857.04;110209;1242;59670;-71
2023/04/28 08:28:25;;;;;;;4.90;3.30;;;;;;;13.62;35.55;97853.40;110336;1242;59693;-71
2023/04/28 08:30:54;;;;;;;5.00;3.80;;;;;;;13.83;35.93;97854.28;110224;1242;72368;-70
2023/04/28 08:33:23;;;;;;;5.40;3.10;;;;;;;14.16;35.71;97854.77;110260;1242;68479;-71
2023/04/28 08:35:54;;;;;;;4.40;2.80;;;;;;;14.62;35.34;97856.87;110285;1242;69823;-70
2023/04/28 08:38:24;;;;;;;4.40;2.70;;;;;;;14.88;34.92;97859.81;110162;1242;59729;-70
2023/04/28 08:40:53;;;;;;;3.50;2.60;;;;;;;14.69;33.86;97853.85;110123;1241;59678;-70
2023/04/28 08:43:23;;;;;;;4.30;3.00;;;;;;;14.17;32.71;97851.58;110193;1242;71998;-71
2023/04/28 08:45:52;;;;;;;;;;;;;;;13.89;35.03;97848.36;110218;1241;69200;-70
2023/04/28 08:48:21;;;;;;;6.40;3.10;;;;;;;13.58;36.01;97843.22;110196;1242;69291;-71
2023/04/28 08:50:53;;;;;;;4.20;3.10;;;;;;;13.68;34.77;97847.20;110233;1243;59697;-71
2023/04/28 08:53:25;;;;;;;3.70;2.70;;;;;;;13.55;35.18;97848.41;110251;1242;59698;-71
2023/04/28 08:55:56;;;;;;;3.50;2.80;;;;;;;13.60;34.38;97847.83;110232;1242;72127;-71
2023/04/28 08:58:27;;;;;;;3.90;2.90;;;;;;;13.72;35.82;97846.19;110097;1242;68475;-72
2023/04/28 09:00:56;;;;;;;4.40;3.30;;;;;;;14.02;35.23;97849.91;110228;1242;68864;-71
2023/04/28 09:03:25;;;;;;;4.70;3.20;;;;;;;13.90;35.38;97850.34;110221;1249;59751;-72
2023/04/28 09:05:55;;;;;;;5.90;3.10;;;;;;;13.72;34.73;97855.63;110207;1242;59673;-72
2023/04/28 09:08:24;;;;;;;3.60;3.20;;;;;;;13.87;33.82;97856.42;110216;1243;71968;-72
2023/04/28 09:11:12;;;;;;;4.00;3.00;;;;;;;13.91;33.66;97853.98;110228;1244;69843;-72
2023/04/28 09:13:42;;;;;;;4.50;3.20;;;;;;;13.91;33.67;97849.92;110234;1241;68508;-72
2023/04/28 09:16:11;;;;;;;5.80;3.00;;;;;;;14.08;33.67;97843.15;110191;1242;59706;-71
2023/04/28 09:18:55;;;;;;;4.30;2.90;;;;;;;14.72;34.16;97842.70;110175;1242;59640;-71
2023/04/28 09:21:24;;;;;;;4.00;2.40;;;;;;;15.72;31.43;97839.09;110206;1242;70494;-72
2023/04/28 09:23:53;;;;;;;3.60;2.50;;;;;;;16.64;31.33;97839.92;110244;1244;69804;-72
2023/04/28 09:26:23;;;;;;;3.60;2.80;;;;;;;17.08;29.72;97835.27;110231;1240;68575;-72
2023/04/28 09:29:10;;;;;;;2.80;2.00;;;;;;;17.69;27.95;97828.60;110228;1241;60012;-72
2023/04/28 09:31:39;;;;;;;2.90;2.20;;;;;;;18.63;28.34;97828.88;110177;1242;59736;-72
2023/04/28 09:34:10;;;;;;;3.80;2.30;;;;;;;19.29;27.64;97824.70;110219;1242;71416;-72
2023/04/28 09:36:43;;;;;;;3.50;2.40;;;;;;;19.20;26.51;97822.27;110208;1242;69693;-72
2023/04/28 09:39:12;;;;;;;3.80;2.60;;;;;;;20.03;25.20;97824.48;110221;1242;70084;-72
2023/04/28 09:41:44;;;;;;;4.70;2.60;;;;;;;19.59;26.41;97824.48;110189;1242;59731;-72
2023/04/28 09:44:23;;;;;;;4.30;2.40;;;;;;;19.53;26.79;97821.88;110206;1242;59633;-72
2023/04/28 09:46:54;;;;;;;5.00;2.80;;;;;;;18.50;26.67;97822.89;110248;1241;71956;-72
2023/04/28 09:49:23;;;;;;;;;;;;;;;17.21;28.24;97823.50;110209;1242;69198;-72
2023/04/28 09:51:52;;;;;;;3.50;2.30;;;;;;;16.79;28.97;97821.37;110197;1241;69375;-71
2023/04/28 09:54:22;;;;;;;4.30;2.90;;;;;;;17.49;29.04;97814.81;110191;1244;59759;-71
2023/04/28 09:56:52;;;;;;;3.60;2.70;;;;;;;18.36;28.18;97813.00;110170;1248;59628;-71
2023/04/28 09:59:22;;;;;;;3.50;2.60;;;;;;;18.45;27.80;97810.34;110211;1247;71716;-72
2023/04/28 10:01:51;;;;;;;3.70;2.70;;;;;;;18.33;27.71;97808.67;110208;1242;69117;-71
2023/04/28 10:04:21;;;;;;;3.80;2.70;;;;;;;18.80;27.21;97803.09;110200;1245;68530;-71
2023/04/28 10:06:50;;;;;;;;;;;;;;;18.86;26.08;97798.29;110187;1250;59699;-70
2023/04/28 10:09:25;;;;;;;4.70;2.70;;;;;;;19.30;26.05;97796.13;110192;1240;60057;-70
2023/04/28 10:11:54;;;;;;;5.60;2.70;;;;;;;19.66;24.21;97792.18;110182;1241;71698;-70
2023/04/28 10:14:26;;;;;;;3.10;2.10;;;;;;;19.66;24.89;97786.63;110215;1242;69889;-70
2023/04/28 10:16:57;;;;;;;3.10;2.20;;;;;;;19.93;24.77;97785.55;110167;1242;68520;-70
2023/04/28 10:19:26;;;;;;;3.20;2.60;;;;;;;19.72;26.22;97787.42;110310;1242;59687;-69
2023/04/28 10:22:21;;;;;;;4.60;2.60;;;;;;;19.73;25.60;97779.39;110206;1243;59708;-69
2023/04/28 10:25:12;;;;;;;3.40;2.30;;;;;;;19.57;25.56;97773.79;110202;1242;71393;-69
2023/04/28 10:27:44;;;;;;;3.80;2.10;;;;;;;19.05;26.35;97766.02;110214;1242;68550;-72
2023/04/28 10:30:20;;;;;;;3.10;2.40;;;;;;;18.50;28.21;97774.17;110199;1248;68674;-70
2023/04/28 10:33:10;;;;;;;;;;;;;;;18.74;26.72;97773.44;110162;1243;59688;-70
2023/04/28 10:35:42;;;;;;;3.00;2.30;;;;;;;19.75;26.09;97769.63;110189;1241;59705;-70
2023/04/28 10:38:22;;;;;;;3.70;2.10;;;;;;;20.22;24.68;97767.10;110162;1240;71810;-70
2023/04/28 10:40:53;;;;;;;3.60;2.80;;;;;;;20.99;24.38;97755.73;110176;1242;69602;-69
2023/04/28 10:43:25;;;;;;;3.90;2.40;;;;;;;21.27;23.13;97755.02;110144;1246;69621;-71
2023/04/28 10:46:01;;;;;;;3.90;2.10;;;;;;;21.26;23.22;97752.97;110150;1242;59746;-70
2023/04/28 10:48:32;;;;;;;2.70;1.90;;;;;;;21.41;23.45;97745.12;110173;1241;59698;-70
2023/04/28 10:51:02;;;;;;;3.00;2.40;;;;;;;22.00;23.99;97743.42;110246;1242;72001;-69
2023/04/28 10:53:53;;;;;;;2.90;2.50;;;;;;;21.98;23.71;97738.52;110205;1243;68626;-70
2023/04/28 10:56:25;;;;;;;3.70;2.60;;;;;;;22.03;23.15;97731.52;110244;1241;69907;-70
2023/04/28 10:58:58;;;;;;;3.80;2.50;;;;;;;21.60;23.69;97732.51;110146;1242;59731;-69
2023/04/28 11:01:29;;;;;;;4.70;2.50;;;;;;;20.63;24.52;97737.39;110189;1243;59699;-70
2023/04/28 11:04:01;;;;;;;3.80;2.40;;;;;;;19.32;25.19;97737.02;110185;1242;71238;-70
2023/04/28 11:06:35;;;;;;;4.10;2.70;;;;;;;18.48;26.24;97734.70;110217;1246;69835;-71
2023/04/28 11:09:13;;;;;;;3.60;2.20;;;;;;;18.11;25.87;97730.55;110168;1242;69389;-69
2023/04/28 11:12:06;;;;;;;3.30;2.40;;;;;;;17.53;26.54;97727.92;110197;1242;59731;-70
2023/04/28 11:14:41;;;;;;;3.40;2.60;;;;;;;17.71;27.94;97723.78;110189;1241;59740;-70
2023/04/28 11:17:16;;;;;;;4.00;2.00;;;;;;;18.05;25.74;97724.14;110171;1240;72050;-70
2023/04/28 11:19:47;;;;;;;4.00;2.10;;;;;;;18.69;27.73;97720.21;110174;1242;68739;-70
2023/04/28 11:22:22;;;;;;;2.80;2.20;;;;;;;18.61;25.51;97714.29;110069;1240;69147;-70
2023/04/28 11:24:58;;;;;;;3.00;2.30;;;;;;;18.71;26.03;97718.61;110197;1243;60152;-71
2023/04/28 11:27:32;;;;;;;3.10;2.50;;;;;;;18.91;26.66;97714.54;110227;1240;59728;-69
2023/04/28 11:30:01;;;;;;;3.70;2.20;;;;;;;18.87;26.24;97713.77;110176;1241;71563;-69
2023/04/28 11:32:35;;;;;;;3.30;2.30;;;;;;;18.91;26.27;97709.67;110189;1241;69690;-71
2023/04/28 11:35:08;;;;;;;4.30;2.40;;;;;;;19.28;26.73;97712.59;110210;1243;69299;-69
2023/04/28 11:37:37;;;;;;;3.80;2.20;;;;;;;20.13;25.74;97713.23;110192;1243;59678;-69
2023/04/28 11:40:10;;;;;;;;;;;;;;;19.91;23.69;97709.48;110147;1245;59681;-70
2023/04/28 11:42:48;;;;;;;2.60;1.80;;;;;;;20.40;23.79;97703.02;110221;1247;70662;-69
2023/04/28 11:45:17;;;;;;;3.00;2.30;;;;;;;20.63;23.67;97701.64;110190;1242;69845;-70
2023/04/28 11:47:46;;;;;;;3.80;2.30;;;;;;;19.36;23.69;97705.80;110155;1247;69690;-68